sensor_id;sensor_type;location;lat;lon;timestamp;P1;durP1;ratioP1;P2;durP2;ratioP2
1026;SDS011;502;48.746;9.214;2022-09-09T00:02:03;2.80;;;2.00;;
1026;SDS011;502;48.746;9.214;2022-09-09T00:04:32;2.17;;;1.90;;
1026;SDS011;502;48.746;9.214;2022-09-09T00:07:03;3.13;;;1.80;;
1026;SDS011;502;48.746;9.214;2022-09-09T00:09:33;3.40;;;1.87;;
1026;SDS011;502;48.746;9.214;2022-09-09T00:12:06;3.83;;;2.00;;
1026;SDS011;502;48.746;9.214;2022-09-09T00:14:38;2.10;;;1.70;;
1026;SDS011;502;48.746;9.214;2022-09-09T00:17:12;3.50;;;2.20;;
1026;SDS011;502;48.746;9.214;2022-09-09T00:19:41;6.40;;;2.30;;
1026;SDS011;502;48.746;9.214;2022-09-09T00:22:17;2.80;;;2.10;;
1026;SDS011;502;48.746;9.214;2022-09-09T00:24:45;2.00;;;1.70;;
1026;SDS011;502;48.746;9.214;2022-09-09T00:27:16;2.53;;;1.60;;
1026;SDS011;502;48.746;9.214;2022-09-09T00:29:47;1.80;;;1.63;;
1026;SDS011;502;48.746;9.214;2022-09-09T00:32:19;2.83;;;2.00;;
1026;SDS011;502;48.746;9.214;2022-09-09T00:34:48;3.17;;;1.83;;
1026;SDS011;502;48.746;9.214;2022-09-09T00:37:17;3.20;;;2.37;;
1026;SDS011;502;48.746;9.214;2022-09-09T00:39:45;1.67;;;1.40;;
1026;SDS011;502;48.746;9.214;2022-09-09T00:42:14;2.63;;;2.43;;
1026;SDS011;502;48.746;9.214;2022-09-09T00:44:51;2.43;;;1.77;;
1026;SDS011;502;48.746;9.214;2022-09-09T00:47:25;3.87;;;1.90;;
1026;SDS011;502;48.746;9.214;2022-09-09T00:50:20;4.30;;;2.30;;
1026;SDS011;502;48.746;9.214;2022-09-09T00:52:59;3.00;;;1.83;;
1026;SDS011;502;48.746;9.214;2022-09-09T00:55:33;1.97;;;1.60;;
1026;SDS011;502;48.746;9.214;2022-09-09T00:58:06;3.27;;;1.70;;
1026;SDS011;502;48.746;9.214;2022-09-09T01:00:35;2.93;;;2.00;;
1026;SDS011;502;48.746;9.214;2022-09-09T01:05:53;3.60;;;2.00;;
1026;SDS011;502;48.746;9.214;2022-09-09T01:08:31;1.67;;;1.50;;
1026;SDS011;502;48.746;9.214;2022-09-09T01:11:21;3.93;;;1.50;;
1026;SDS011;502;48.746;9.214;2022-09-09T01:13:52;3.77;;;1.70;;
1026;SDS011;502;48.746;9.214;2022-09-09T01:16:24;3.87;;;1.23;;
1026;SDS011;502;48.746;9.214;2022-09-09T01:18:51;2.10;;;1.33;;
1026;SDS011;502;48.746;9.214;2022-09-09T01:21:22;2.27;;;1.50;;
1026;SDS011;502;48.746;9.214;2022-09-09T01:24:15;1.70;;;1.37;;
1026;SDS011;502;48.746;9.214;2022-09-09T01:26:59;2.17;;;1.67;;
1026;SDS011;502;48.746;9.214;2022-09-09T01:29:28;2.00;;;1.20;;
1026;SDS011;502;48.746;9.214;2022-09-09T01:31:55;2.73;;;1.53;;
1026;SDS011;502;48.746;9.214;2022-09-09T01:34:24;3.83;;;1.50;;
1026;SDS011;502;48.746;9.214;2022-09-09T01:36:53;3.43;;;1.40;;
1026;SDS011;502;48.746;9.214;2022-09-09T01:39:24;2.40;;;1.40;;
1026;SDS011;502;48.746;9.214;2022-09-09T01:42:00;3.53;;;1.60;;
1026;SDS011;502;48.746;9.214;2022-09-09T01:44:27;2.10;;;1.23;;
1026;SDS011;502;48.746;9.214;2022-09-09T01:46:55;3.93;;;1.37;;
1026;SDS011;502;48.746;9.214;2022-09-09T01:49:22;2.50;;;1.10;;
1026;SDS011;502;48.746;9.214;2022-09-09T01:51:49;2.43;;;1.60;;
1026;SDS011;502;48.746;9.214;2022-09-09T01:54:24;2.70;;;1.87;;
1026;SDS011;502;48.746;9.214;2022-09-09T01:56:56;2.53;;;1.40;;
1026;SDS011;502;48.746;9.214;2022-09-09T01:59:33;2.00;;;1.80;;
1026;SDS011;502;48.746;9.214;2022-09-09T02:02:09;2.90;;;1.40;;
1026;SDS011;502;48.746;9.214;2022-09-09T02:04:41;2.13;;;1.50;;
1026;SDS011;502;48.746;9.214;2022-09-09T02:07:26;2.07;;;1.27;;
1026;SDS011;502;48.746;9.214;2022-09-09T02:09:59;1.60;;;1.50;;
1026;SDS011;502;48.746;9.214;2022-09-09T02:12:28;1.93;;;1.40;;
1026;SDS011;502;48.746;9.214;2022-09-09T02:15:00;4.00;;;1.17;;
1026;SDS011;502;48.746;9.214;2022-09-09T02:17:37;1.40;;;1.30;;
1026;SDS011;502;48.746;9.214;2022-09-09T02:20:11;2.93;;;1.40;;
1026;SDS011;502;48.746;9.214;2022-09-09T02:22:53;3.57;;;1.60;;
1026;SDS011;502;48.746;9.214;2022-09-09T02:25:22;3.73;;;1.30;;
1026;SDS011;502;48.746;9.214;2022-09-09T02:27:53;3.57;;;1.53;;
1026;SDS011;502;48.746;9.214;2022-09-09T02:30:21;1.60;;;1.50;;
1026;SDS011;502;48.746;9.214;2022-09-09T02:32:52;2.10;;;1.37;;
1026;SDS011;502;48.746;9.214;2022-09-09T02:35:24;2.20;;;1.37;;
1026;SDS011;502;48.746;9.214;2022-09-09T02:37:52;5.43;;;1.50;;
1026;SDS011;502;48.746;9.214;2022-09-09T02:40:22;3.43;;;1.70;;
1026;SDS011;502;48.746;9.214;2022-09-09T02:42:56;2.93;;;1.63;;
1026;SDS011;502;48.746;9.214;2022-09-09T02:45:28;3.80;;;1.30;;
1026;SDS011;502;48.746;9.214;2022-09-09T02:48:02;1.93;;;1.20;;
1026;SDS011;502;48.746;9.214;2022-09-09T02:50:32;3.07;;;1.30;;
1026;SDS011;502;48.746;9.214;2022-09-09T02:53:02;2.00;;;1.20;;
1026;SDS011;502;48.746;9.214;2022-09-09T02:55:38;1.93;;;1.27;;
1026;SDS011;502;48.746;9.214;2022-09-09T02:58:09;2.03;;;1.50;;
1026;SDS011;502;48.746;9.214;2022-09-09T03:00:40;5.43;;;1.30;;
1026;SDS011;502;48.746;9.214;2022-09-09T03:03:07;2.13;;;1.50;;
1026;SDS011;502;48.746;9.214;2022-09-09T03:05:35;4.77;;;1.47;;
1026;SDS011;502;48.746;9.214;2022-09-09T03:08:03;2.97;;;1.33;;
1026;SDS011;502;48.746;9.214;2022-09-09T03:10:30;2.50;;;1.57;;
1026;SDS011;502;48.746;9.214;2022-09-09T03:12:57;6.63;;;1.40;;
1026;SDS011;502;48.746;9.214;2022-09-09T03:15:26;10.07;;;1.70;;
1026;SDS011;502;48.746;9.214;2022-09-09T03:17:57;1.30;;;1.00;;
1026;SDS011;502;48.746;9.214;2022-09-09T03:20:25;3.00;;;1.50;;
1026;SDS011;502;48.746;9.214;2022-09-09T03:22:53;2.27;;;1.40;;
1026;SDS011;502;48.746;9.214;2022-09-09T03:25:20;1.60;;;1.10;;
1026;SDS011;502;48.746;9.214;2022-09-09T03:27:49;1.67;;;1.07;;
1026;SDS011;502;48.746;9.214;2022-09-09T03:30:19;4.17;;;2.10;;
1026;SDS011;502;48.746;9.214;2022-09-09T03:32:47;3.87;;;2.27;;
1026;SDS011;502;48.746;9.214;2022-09-09T03:35:15;4.70;;;1.50;;
1026;SDS011;502;48.746;9.214;2022-09-09T03:37:42;1.47;;;1.23;;
1026;SDS011;502;48.746;9.214;2022-09-09T03:40:10;3.37;;;1.40;;
1026;SDS011;502;48.746;9.214;2022-09-09T03:42:37;2.83;;;1.60;;
1026;SDS011;502;48.746;9.214;2022-09-09T03:45:05;4.03;;;1.53;;
1026;SDS011;502;48.746;9.214;2022-09-09T03:47:33;2.00;;;1.50;;
1026;SDS011;502;48.746;9.214;2022-09-09T03:50:04;1.73;;;1.50;;
1026;SDS011;502;48.746;9.214;2022-09-09T03:52:35;2.90;;;1.43;;
1026;SDS011;502;48.746;9.214;2022-09-09T03:55:04;2.70;;;1.40;;
1026;SDS011;502;48.746;9.214;2022-09-09T03:57:32;1.90;;;1.30;;
1026;SDS011;502;48.746;9.214;2022-09-09T04:00:01;3.73;;;1.50;;
1026;SDS011;502;48.746;9.214;2022-09-09T04:02:31;1.70;;;1.30;;
1026;SDS011;502;48.746;9.214;2022-09-09T04:04:57;3.73;;;1.70;;
1026;SDS011;502;48.746;9.214;2022-09-09T04:07:25;2.07;;;1.50;;
1026;SDS011;502;48.746;9.214;2022-09-09T04:09:54;2.73;;;1.30;;
1026;SDS011;502;48.746;9.214;2022-09-09T04:12:22;3.60;;;1.80;;
1026;SDS011;502;48.746;9.214;2022-09-09T04:14:49;1.83;;;1.57;;
1026;SDS011;502;48.746;9.214;2022-09-09T04:17:15;3.50;;;2.10;;
1026;SDS011;502;48.746;9.214;2022-09-09T04:19:42;5.47;;;2.00;;
1026;SDS011;502;48.746;9.214;2022-09-09T04:22:09;2.57;;;1.60;;
1026;SDS011;502;48.746;9.214;2022-09-09T04:24:36;3.00;;;2.13;;
1026;SDS011;502;48.746;9.214;2022-09-09T04:27:04;2.03;;;1.40;;
1026;SDS011;502;48.746;9.214;2022-09-09T04:29:33;2.30;;;1.80;;
1026;SDS011;502;48.746;9.214;2022-09-09T04:32:01;2.20;;;1.57;;
1026;SDS011;502;48.746;9.214;2022-09-09T04:34:28;2.33;;;1.33;;
1026;SDS011;502;48.746;9.214;2022-09-09T04:36:55;1.80;;;1.60;;
1026;SDS011;502;48.746;9.214;2022-09-09T04:39:22;2.40;;;1.57;;
1026;SDS011;502;48.746;9.214;2022-09-09T04:41:50;3.10;;;1.63;;
1026;SDS011;502;48.746;9.214;2022-09-09T04:44:18;3.53;;;1.90;;
1026;SDS011;502;48.746;9.214;2022-09-09T04:46:46;2.00;;;1.60;;
1026;SDS011;502;48.746;9.214;2022-09-09T04:49:13;2.53;;;1.83;;
1026;SDS011;502;48.746;9.214;2022-09-09T04:51:40;4.13;;;1.87;;
1026;SDS011;502;48.746;9.214;2022-09-09T04:54:08;3.10;;;1.73;;
1026;SDS011;502;48.746;9.214;2022-09-09T04:56:38;5.60;;;2.33;;
1026;SDS011;502;48.746;9.214;2022-09-09T04:59:09;3.57;;;1.53;;
1026;SDS011;502;48.746;9.214;2022-09-09T05:01:43;3.60;;;2.10;;
1026;SDS011;502;48.746;9.214;2022-09-09T05:04:10;1.80;;;1.50;;
1026;SDS011;502;48.746;9.214;2022-09-09T05:06:37;3.30;;;1.53;;
1026;SDS011;502;48.746;9.214;2022-09-09T05:09:04;4.07;;;1.77;;
1026;SDS011;502;48.746;9.214;2022-09-09T05:11:31;3.03;;;1.60;;
1026;SDS011;502;48.746;9.214;2022-09-09T05:14:05;2.60;;;1.73;;
1026;SDS011;502;48.746;9.214;2022-09-09T05:16:32;2.17;;;1.73;;
1026;SDS011;502;48.746;9.214;2022-09-09T05:19:00;1.73;;;1.63;;
1026;SDS011;502;48.746;9.214;2022-09-09T05:21:36;3.17;;;1.70;;
1026;SDS011;502;48.746;9.214;2022-09-09T05:24:03;2.97;;;1.90;;
1026;SDS011;502;48.746;9.214;2022-09-09T05:26:29;2.97;;;1.70;;
1026;SDS011;502;48.746;9.214;2022-09-09T05:28:57;3.30;;;1.83;;
1026;SDS011;502;48.746;9.214;2022-09-09T05:31:26;1.83;;;1.63;;
1026;SDS011;502;48.746;9.214;2022-09-09T05:33:53;2.23;;;1.30;;
1026;SDS011;502;48.746;9.214;2022-09-09T05:36:22;2.23;;;1.60;;
1026;SDS011;502;48.746;9.214;2022-09-09T05:38:54;1.97;;;1.43;;
1026;SDS011;502;48.746;9.214;2022-09-09T05:41:21;4.13;;;2.30;;
1026;SDS011;502;48.746;9.214;2022-09-09T05:43:48;2.37;;;1.80;;
1026;SDS011;502;48.746;9.214;2022-09-09T05:46:18;2.57;;;1.80;;
1026;SDS011;502;48.746;9.214;2022-09-09T05:48:48;2.90;;;1.90;;
1026;SDS011;502;48.746;9.214;2022-09-09T05:51:18;2.30;;;1.67;;
1026;SDS011;502;48.746;9.214;2022-09-09T05:53:48;2.30;;;1.60;;
1026;SDS011;502;48.746;9.214;2022-09-09T05:56:16;2.53;;;2.30;;
1026;SDS011;502;48.746;9.214;2022-09-09T05:58:44;3.33;;;1.87;;
1026;SDS011;502;48.746;9.214;2022-09-09T06:01:13;3.23;;;1.80;;
1026;SDS011;502;48.746;9.214;2022-09-09T06:03:42;2.97;;;1.40;;
1026;SDS011;502;48.746;9.214;2022-09-09T06:06:10;1.63;;;1.30;;
1026;SDS011;502;48.746;9.214;2022-09-09T06:08:37;3.00;;;1.93;;
1026;SDS011;502;48.746;9.214;2022-09-09T06:11:07;2.43;;;1.70;;
1026;SDS011;502;48.746;9.214;2022-09-09T06:13:36;2.53;;;1.90;;
1026;SDS011;502;48.746;9.214;2022-09-09T06:16:05;2.57;;;1.70;;
1026;SDS011;502;48.746;9.214;2022-09-09T06:18:32;2.83;;;1.40;;
1026;SDS011;502;48.746;9.214;2022-09-09T06:20:59;3.17;;;1.77;;
1026;SDS011;502;48.746;9.214;2022-09-09T06:23:29;4.00;;;2.13;;
1026;SDS011;502;48.746;9.214;2022-09-09T06:26:03;2.97;;;2.00;;
1026;SDS011;502;48.746;9.214;2022-09-09T06:28:34;3.40;;;1.60;;
1026;SDS011;502;48.746;9.214;2022-09-09T06:31:02;2.83;;;1.70;;
1026;SDS011;502;48.746;9.214;2022-09-09T06:33:31;2.50;;;1.50;;
1026;SDS011;502;48.746;9.214;2022-09-09T06:36:01;1.80;;;1.53;;
1026;SDS011;502;48.746;9.214;2022-09-09T06:38:28;1.87;;;1.43;;
1026;SDS011;502;48.746;9.214;2022-09-09T06:40:56;3.80;;;1.57;;
1026;SDS011;502;48.746;9.214;2022-09-09T06:43:24;3.53;;;1.60;;
1026;SDS011;502;48.746;9.214;2022-09-09T06:45:57;4.53;;;1.40;;
1026;SDS011;502;48.746;9.214;2022-09-09T06:48:25;2.80;;;1.67;;
1026;SDS011;502;48.746;9.214;2022-09-09T06:51:02;1.50;;;1.27;;
1026;SDS011;502;48.746;9.214;2022-09-09T06:54:01;2.70;;;1.73;;
1026;SDS011;502;48.746;9.214;2022-09-09T06:56:29;3.20;;;1.73;;
1026;SDS011;502;48.746;9.214;2022-09-09T06:58:58;2.03;;;1.70;;
1026;SDS011;502;48.746;9.214;2022-09-09T07:01:30;1.90;;;1.60;;
1026;SDS011;502;48.746;9.214;2022-09-09T07:04:01;3.00;;;1.80;;
1026;SDS011;502;48.746;9.214;2022-09-09T07:06:34;2.10;;;1.60;;
1026;SDS011;502;48.746;9.214;2022-09-09T07:09:03;2.23;;;1.60;;
1026;SDS011;502;48.746;9.214;2022-09-09T07:11:32;2.50;;;1.77;;
1026;SDS011;502;48.746;9.214;2022-09-09T07:14:00;3.50;;;1.70;;
1026;SDS011;502;48.746;9.214;2022-09-09T07:16:30;2.33;;;1.50;;
1026;SDS011;502;48.746;9.214;2022-09-09T07:19:01;2.20;;;1.80;;
1026;SDS011;502;48.746;9.214;2022-09-09T07:21:28;3.50;;;1.87;;
1026;SDS011;502;48.746;9.214;2022-09-09T07:23:56;3.73;;;1.80;;
1026;SDS011;502;48.746;9.214;2022-09-09T07:26:25;5.30;;;1.80;;
1026;SDS011;502;48.746;9.214;2022-09-09T07:28:53;2.07;;;1.60;;
1026;SDS011;502;48.746;9.214;2022-09-09T07:31:23;1.83;;;1.60;;
1026;SDS011;502;48.746;9.214;2022-09-09T07:33:53;1.93;;;1.50;;
1026;SDS011;502;48.746;9.214;2022-09-09T07:36:21;4.60;;;1.60;;
1026;SDS011;502;48.746;9.214;2022-09-09T07:38:54;2.93;;;1.67;;
1026;SDS011;502;48.746;9.214;2022-09-09T07:41:23;1.70;;;1.43;;
1026;SDS011;502;48.746;9.214;2022-09-09T07:43:51;1.90;;;1.37;;
1026;SDS011;502;48.746;9.214;2022-09-09T07:46:20;3.00;;;1.60;;
1026;SDS011;502;48.746;9.214;2022-09-09T07:48:50;2.27;;;1.40;;
1026;SDS011;502;48.746;9.214;2022-09-09T07:51:21;3.30;;;1.73;;
1026;SDS011;502;48.746;9.214;2022-09-09T07:53:52;4.97;;;1.63;;
1026;SDS011;502;48.746;9.214;2022-09-09T07:56:19;4.53;;;1.30;;
1026;SDS011;502;48.746;9.214;2022-09-09T07:58:48;2.37;;;1.50;;
1026;SDS011;502;48.746;9.214;2022-09-09T08:01:16;1.60;;;1.23;;
1026;SDS011;502;48.746;9.214;2022-09-09T08:03:44;3.13;;;1.30;;
1026;SDS011;502;48.746;9.214;2022-09-09T08:06:23;2.47;;;1.33;;
1026;SDS011;502;48.746;9.214;2022-09-09T08:08:57;2.17;;;1.30;;
1026;SDS011;502;48.746;9.214;2022-09-09T08:11:25;8.50;;;1.70;;
1026;SDS011;502;48.746;9.214;2022-09-09T08:13:55;2.50;;;1.40;;
1026;SDS011;502;48.746;9.214;2022-09-09T08:16:23;2.03;;;1.40;;
1026;SDS011;502;48.746;9.214;2022-09-09T08:18:51;2.10;;;1.60;;
1026;SDS011;502;48.746;9.214;2022-09-09T08:21:20;2.17;;;1.37;;
1026;SDS011;502;48.746;9.214;2022-09-09T08:23:50;3.03;;;1.40;;
1026;SDS011;502;48.746;9.214;2022-09-09T08:26:19;4.13;;;1.70;;
1026;SDS011;502;48.746;9.214;2022-09-09T08:28:48;2.70;;;1.20;;
1026;SDS011;502;48.746;9.214;2022-09-09T08:31:17;2.93;;;1.60;;
1026;SDS011;502;48.746;9.214;2022-09-09T08:33:46;2.57;;;1.33;;
1026;SDS011;502;48.746;9.214;2022-09-09T08:36:20;2.70;;;1.57;;
1026;SDS011;502;48.746;9.214;2022-09-09T08:38:49;1.97;;;1.10;;
1026;SDS011;502;48.746;9.214;2022-09-09T08:44:35;2.87;;;1.30;;
1026;SDS011;502;48.746;9.214;2022-09-09T08:47:09;1.90;;;1.07;;
1026;SDS011;502;48.746;9.214;2022-09-09T08:49:46;3.30;;;1.40;;
1026;SDS011;502;48.746;9.214;2022-09-09T08:52:23;2.00;;;1.37;;
1026;SDS011;502;48.746;9.214;2022-09-09T08:54:53;2.80;;;1.10;;
1026;SDS011;502;48.746;9.214;2022-09-09T08:57:25;3.80;;;1.37;;
1026;SDS011;502;48.746;9.214;2022-09-09T08:59:52;1.97;;;1.30;;
1026;SDS011;502;48.746;9.214;2022-09-09T09:02:23;2.17;;;1.13;;
1026;SDS011;502;48.746;9.214;2022-09-09T09:04:56;3.83;;;1.20;;
1026;SDS011;502;48.746;9.214;2022-09-09T09:07:42;2.97;;;1.10;;
1026;SDS011;502;48.746;9.214;2022-09-09T09:10:22;2.07;;;1.20;;
1026;SDS011;502;48.746;9.214;2022-09-09T09:13:07;2.30;;;1.00;;
1026;SDS011;502;48.746;9.214;2022-09-09T09:15:39;2.23;;;1.00;;
1026;SDS011;502;48.746;9.214;2022-09-09T09:18:08;3.60;;;1.07;;
1026;SDS011;502;48.746;9.214;2022-09-09T09:20:39;3.10;;;1.53;;
1026;SDS011;502;48.746;9.214;2022-09-09T09:23:15;3.30;;;0.90;;
1026;SDS011;502;48.746;9.214;2022-09-09T09:25:46;2.10;;;1.13;;
1026;SDS011;502;48.746;9.214;2022-09-09T09:28:14;3.00;;;1.00;;
1026;SDS011;502;48.746;9.214;2022-09-09T09:30:46;5.00;;;1.20;;
1026;SDS011;502;48.746;9.214;2022-09-09T09:33:17;6.93;;;1.87;;
1026;SDS011;502;48.746;9.214;2022-09-09T09:35:48;4.80;;;1.97;;
1026;SDS011;502;48.746;9.214;2022-09-09T09:38:19;2.37;;;1.20;;
1026;SDS011;502;48.746;9.214;2022-09-09T09:40:49;1.73;;;1.20;;
1026;SDS011;502;48.746;9.214;2022-09-09T09:43:21;3.40;;;0.90;;
1026;SDS011;502;48.746;9.214;2022-09-09T09:45:51;2.00;;;1.00;;
1026;SDS011;502;48.746;9.214;2022-09-09T09:48:18;1.77;;;1.00;;
1026;SDS011;502;48.746;9.214;2022-09-09T09:51:12;2.17;;;1.00;;
1026;SDS011;502;48.746;9.214;2022-09-09T09:54:22;2.00;;;1.10;;
1026;SDS011;502;48.746;9.214;2022-09-09T09:56:56;5.83;;;1.27;;
1026;SDS011;502;48.746;9.214;2022-09-09T09:59:35;2.70;;;1.10;;
1026;SDS011;502;48.746;9.214;2022-09-09T10:02:14;1.90;;;1.20;;
1026;SDS011;502;48.746;9.214;2022-09-09T10:04:44;2.53;;;1.20;;
1026;SDS011;502;48.746;9.214;2022-09-09T10:07:12;2.70;;;1.10;;
1026;SDS011;502;48.746;9.214;2022-09-09T10:09:43;2.60;;;1.30;;
1026;SDS011;502;48.746;9.214;2022-09-09T10:12:13;2.20;;;1.17;;
1026;SDS011;502;48.746;9.214;2022-09-09T10:14:49;4.40;;;1.17;;
1026;SDS011;502;48.746;9.214;2022-09-09T10:17:27;4.30;;;1.60;;
1026;SDS011;502;48.746;9.214;2022-09-09T10:20:10;4.00;;;2.07;;
1026;SDS011;502;48.746;9.214;2022-09-09T10:22:45;3.63;;;1.57;;
1026;SDS011;502;48.746;9.214;2022-09-09T10:25:30;3.40;;;1.43;;
1026;SDS011;502;48.746;9.214;2022-09-09T10:28:17;2.33;;;1.50;;
1026;SDS011;502;48.746;9.214;2022-09-09T10:31:02;2.53;;;1.30;;
1026;SDS011;502;48.746;9.214;2022-09-09T10:33:37;1.73;;;1.40;;
1026;SDS011;502;48.746;9.214;2022-09-09T10:36:39;1.80;;;1.40;;
1026;SDS011;502;48.746;9.214;2022-09-09T10:39:16;3.07;;;1.47;;
1026;SDS011;502;48.746;9.214;2022-09-09T10:41:50;1.83;;;1.60;;
1026;SDS011;502;48.746;9.214;2022-09-09T10:44:26;2.60;;;1.30;;
1026;SDS011;502;48.746;9.214;2022-09-09T10:47:07;3.47;;;1.70;;
1026;SDS011;502;48.746;9.214;2022-09-09T10:49:52;3.17;;;1.80;;
1026;SDS011;502;48.746;9.214;2022-09-09T10:52:31;3.13;;;1.60;;
1026;SDS011;502;48.746;9.214;2022-09-09T10:55:06;2.03;;;1.53;;
1026;SDS011;502;48.746;9.214;2022-09-09T10:57:39;4.80;;;1.33;;
1026;SDS011;502;48.746;9.214;2022-09-09T11:00:14;3.07;;;1.70;;
1026;SDS011;502;48.746;9.214;2022-09-09T11:02:42;1.90;;;1.20;;
1026;SDS011;502;48.746;9.214;2022-09-09T11:05:10;4.57;;;1.20;;
1026;SDS011;502;48.746;9.214;2022-09-09T11:07:42;4.03;;;1.50;;
1026;SDS011;502;48.746;9.214;2022-09-09T11:10:16;2.63;;;1.53;;
1026;SDS011;502;48.746;9.214;2022-09-09T11:12:49;2.20;;;1.30;;
1026;SDS011;502;48.746;9.214;2022-09-09T11:15:18;2.03;;;1.30;;
1026;SDS011;502;48.746;9.214;2022-09-09T11:17:48;2.70;;;1.37;;
1026;SDS011;502;48.746;9.214;2022-09-09T11:20:16;2.03;;;1.40;;
1026;SDS011;502;48.746;9.214;2022-09-09T11:22:44;2.83;;;1.50;;
1026;SDS011;502;48.746;9.214;2022-09-09T11:25:15;2.00;;;1.60;;
1026;SDS011;502;48.746;9.214;2022-09-09T11:27:49;1.80;;;1.20;;
1026;SDS011;502;48.746;9.214;2022-09-09T11:30:24;6.13;;;1.70;;
1026;SDS011;502;48.746;9.214;2022-09-09T11:32:58;1.87;;;1.30;;
1026;SDS011;502;48.746;9.214;2022-09-09T11:35:38;2.43;;;1.23;;
1026;SDS011;502;48.746;9.214;2022-09-09T11:38:22;3.63;;;1.17;;
1026;SDS011;502;48.746;9.214;2022-09-09T11:40:56;1.00;;;0.70;;
1026;SDS011;502;48.746;9.214;2022-09-09T11:43:27;1.27;;;0.80;;
1026;SDS011;502;48.746;9.214;2022-09-09T11:45:56;1.20;;;0.80;;
1026;SDS011;502;48.746;9.214;2022-09-09T11:48:26;3.93;;;1.13;;
1026;SDS011;502;48.746;9.214;2022-09-09T11:50:59;1.43;;;1.00;;
1026;SDS011;502;48.746;9.214;2022-09-09T11:53:30;7.10;;;0.60;;
1026;SDS011;502;48.746;9.214;2022-09-09T11:56:04;0.80;;;0.40;;
1026;SDS011;502;48.746;9.214;2022-09-09T11:58:44;1.83;;;0.40;;
1026;SDS011;502;48.746;9.214;2022-09-09T12:01:27;0.90;;;0.57;;
1026;SDS011;502;48.746;9.214;2022-09-09T12:04:01;1.10;;;0.40;;
1026;SDS011;502;48.746;9.214;2022-09-09T12:06:41;0.90;;;0.37;;
1026;SDS011;502;48.746;9.214;2022-09-09T12:09:09;1.03;;;0.50;;
1026;SDS011;502;48.746;9.214;2022-09-09T12:11:43;1.40;;;0.40;;
1026;SDS011;502;48.746;9.214;2022-09-09T12:14:20;0.90;;;0.40;;
1026;SDS011;502;48.746;9.214;2022-09-09T12:16:47;0.70;;;0.30;;
1026;SDS011;502;48.746;9.214;2022-09-09T12:19:16;1.10;;;0.50;;
1026;SDS011;502;48.746;9.214;2022-09-09T12:21:46;1.00;;;0.40;;
1026;SDS011;502;48.746;9.214;2022-09-09T12:24:19;0.80;;;0.40;;
1026;SDS011;502;48.746;9.214;2022-09-09T12:26:52;0.90;;;0.40;;
1026;SDS011;502;48.746;9.214;2022-09-09T12:29:26;1.43;;;0.63;;
1026;SDS011;502;48.746;9.214;2022-09-09T12:31:56;0.80;;;0.40;;
1026;SDS011;502;48.746;9.214;2022-09-09T12:34:30;0.87;;;0.40;;
1026;SDS011;502;48.746;9.214;2022-09-09T12:37:03;1.90;;;0.70;;
1026;SDS011;502;48.746;9.214;2022-09-09T12:39:32;1.50;;;0.50;;
1026;SDS011;502;48.746;9.214;2022-09-09T12:41:59;2.60;;;0.50;;
1026;SDS011;502;48.746;9.214;2022-09-09T12:44:30;1.13;;;0.70;;
1026;SDS011;502;48.746;9.214;2022-09-09T12:46:58;1.40;;;0.63;;
1026;SDS011;502;48.746;9.214;2022-09-09T12:49:27;1.47;;;0.40;;
1026;SDS011;502;48.746;9.214;2022-09-09T12:51:56;1.67;;;0.60;;
1026;SDS011;502;48.746;9.214;2022-09-09T12:54:23;1.63;;;0.87;;
1026;SDS011;502;48.746;9.214;2022-09-09T12:56:50;1.10;;;0.70;;
1026;SDS011;502;48.746;9.214;2022-09-09T12:59:22;4.70;;;0.87;;
1026;SDS011;502;48.746;9.214;2022-09-09T13:01:56;1.57;;;0.70;;
1026;SDS011;502;48.746;9.214;2022-09-09T13:04:23;1.23;;;0.63;;
1026;SDS011;502;48.746;9.214;2022-09-09T13:06:50;1.20;;;0.60;;
1026;SDS011;502;48.746;9.214;2022-09-09T13:09:18;1.10;;;0.67;;
1026;SDS011;502;48.746;9.214;2022-09-09T13:11:46;1.60;;;0.90;;
1026;SDS011;502;48.746;9.214;2022-09-09T13:14:19;2.80;;;0.90;;
1026;SDS011;502;48.746;9.214;2022-09-09T13:16:56;1.60;;;0.63;;
1026;SDS011;502;48.746;9.214;2022-09-09T13:19:26;2.53;;;0.87;;
1026;SDS011;502;48.746;9.214;2022-09-09T13:21:54;2.00;;;0.73;;
1026;SDS011;502;48.746;9.214;2022-09-09T13:24:25;1.33;;;0.70;;
1026;SDS011;502;48.746;9.214;2022-09-09T13:26:55;1.20;;;0.60;;
1026;SDS011;502;48.746;9.214;2022-09-09T13:29:22;1.30;;;0.57;;
1026;SDS011;502;48.746;9.214;2022-09-09T13:31:49;1.80;;;1.13;;
1026;SDS011;502;48.746;9.214;2022-09-09T13:34:28;2.47;;;1.10;;
1026;SDS011;502;48.746;9.214;2022-09-09T13:36:57;2.90;;;0.90;;
1026;SDS011;502;48.746;9.214;2022-09-09T13:39:26;2.40;;;1.00;;
1026;SDS011;502;48.746;9.214;2022-09-09T13:41:53;1.47;;;0.80;;
1026;SDS011;502;48.746;9.214;2022-09-09T13:44:21;1.57;;;0.80;;
1026;SDS011;502;48.746;9.214;2022-09-09T13:46:59;1.33;;;0.80;;
1026;SDS011;502;48.746;9.214;2022-09-09T13:49:29;2.10;;;1.23;;
1026;SDS011;502;48.746;9.214;2022-09-09T13:52:05;1.70;;;0.80;;
1026;SDS011;502;48.746;9.214;2022-09-09T13:54:35;2.50;;;0.60;;
1026;SDS011;502;48.746;9.214;2022-09-09T13:57:02;3.60;;;0.70;;
1026;SDS011;502;48.746;9.214;2022-09-09T13:59:30;1.40;;;0.77;;
1026;SDS011;502;48.746;9.214;2022-09-09T14:01:56;1.00;;;0.70;;
1026;SDS011;502;48.746;9.214;2022-09-09T14:04:23;2.33;;;0.80;;
1026;SDS011;502;48.746;9.214;2022-09-09T14:06:51;1.87;;;0.50;;
1026;SDS011;502;48.746;9.214;2022-09-09T14:09:18;1.30;;;0.80;;
1026;SDS011;502;48.746;9.214;2022-09-09T14:11:45;2.63;;;0.80;;
1026;SDS011;502;48.746;9.214;2022-09-09T14:14:11;3.30;;;1.10;;
1026;SDS011;502;48.746;9.214;2022-09-09T14:16:38;1.50;;;0.73;;
1026;SDS011;502;48.746;9.214;2022-09-09T14:19:05;1.40;;;0.50;;
1026;SDS011;502;48.746;9.214;2022-09-09T14:21:32;3.07;;;0.60;;
1026;SDS011;502;48.746;9.214;2022-09-09T14:23:59;2.30;;;0.90;;
1026;SDS011;502;48.746;9.214;2022-09-09T14:26:26;1.17;;;0.70;;
1026;SDS011;502;48.746;9.214;2022-09-09T14:28:54;1.53;;;0.67;;
1026;SDS011;502;48.746;9.214;2022-09-09T14:31:21;2.07;;;0.50;;
1026;SDS011;502;48.746;9.214;2022-09-09T14:33:48;1.37;;;0.70;;
1026;SDS011;502;48.746;9.214;2022-09-09T14:36:15;1.10;;;0.83;;
1026;SDS011;502;48.746;9.214;2022-09-09T14:38:42;1.03;;;0.70;;
1026;SDS011;502;48.746;9.214;2022-09-09T14:41:11;0.83;;;0.47;;
1026;SDS011;502;48.746;9.214;2022-09-09T14:43:43;2.83;;;0.63;;
1026;SDS011;502;48.746;9.214;2022-09-09T14:46:10;1.20;;;0.60;;
1026;SDS011;502;48.746;9.214;2022-09-09T14:48:38;0.90;;;0.60;;
1026;SDS011;502;48.746;9.214;2022-09-09T14:51:06;1.97;;;0.50;;
1026;SDS011;502;48.746;9.214;2022-09-09T14:53:33;1.37;;;0.70;;
1026;SDS011;502;48.746;9.214;2022-09-09T14:56:06;1.10;;;0.50;;
1026;SDS011;502;48.746;9.214;2022-09-09T14:58:36;1.53;;;0.90;;
1026;SDS011;502;48.746;9.214;2022-09-09T15:01:03;2.00;;;0.90;;
1026;SDS011;502;48.746;9.214;2022-09-09T15:03:32;3.73;;;1.00;;
1026;SDS011;502;48.746;9.214;2022-09-09T15:06:04;1.60;;;0.50;;
1026;SDS011;502;48.746;9.214;2022-09-09T15:08:31;2.23;;;0.73;;
1026;SDS011;502;48.746;9.214;2022-09-09T15:11:00;1.00;;;0.60;;
1026;SDS011;502;48.746;9.214;2022-09-09T15:13:27;1.30;;;0.60;;
1026;SDS011;502;48.746;9.214;2022-09-09T15:15:55;1.17;;;0.53;;
1026;SDS011;502;48.746;9.214;2022-09-09T15:18:23;3.33;;;0.60;;
1026;SDS011;502;48.746;9.214;2022-09-09T15:20:50;1.73;;;0.80;;
1026;SDS011;502;48.746;9.214;2022-09-09T15:23:18;2.40;;;0.60;;
1026;SDS011;502;48.746;9.214;2022-09-09T15:25:51;2.70;;;1.03;;
1026;SDS011;502;48.746;9.214;2022-09-09T15:28:18;1.67;;;0.60;;
1026;SDS011;502;48.746;9.214;2022-09-09T15:30:47;1.43;;;0.70;;
1026;SDS011;502;48.746;9.214;2022-09-09T15:33:15;1.33;;;0.63;;
1026;SDS011;502;48.746;9.214;2022-09-09T15:35:42;1.00;;;0.50;;
1026;SDS011;502;48.746;9.214;2022-09-09T15:38:09;1.30;;;0.70;;
1026;SDS011;502;48.746;9.214;2022-09-09T15:40:38;1.47;;;0.80;;
1026;SDS011;502;48.746;9.214;2022-09-09T15:43:04;0.90;;;0.50;;
1026;SDS011;502;48.746;9.214;2022-09-09T15:45:31;2.77;;;0.73;;
1026;SDS011;502;48.746;9.214;2022-09-09T15:47:58;1.80;;;0.97;;
1026;SDS011;502;48.746;9.214;2022-09-09T15:50:26;0.90;;;0.50;;
1026;SDS011;502;48.746;9.214;2022-09-09T15:52:54;1.93;;;0.70;;
1026;SDS011;502;48.746;9.214;2022-09-09T15:55:21;1.20;;;0.63;;
1026;SDS011;502;48.746;9.214;2022-09-09T15:57:49;2.20;;;0.67;;
1026;SDS011;502;48.746;9.214;2022-09-09T16:00:17;1.50;;;1.10;;